UKWW/VIN METAR and TAF weather

Enter ICAO airport designator
Station Type Date Time Source
UKWW METAR 2021/10/24 17:00 UTC NOAA

UKWW 241700Z 32005MPS 290V010 9999 OVC043 05/M02 Q1030 NOSIG


Station Type Date Time Source
UKWW Decoded METAR 2021/10/24 17:00 UTC NOAA

Station name not available
Oct 24, 2021 - 01:00 PM EDT / 2021.10.24 1700 UTC
Wind: from the NW (320 degrees) at 11 MPH (10 KT) (direction variable):0
Visibility: greater than 7 mile(s):0
Sky conditions: overcast
Temperature: 41 F (5 C)
Dew Point: 28 F (-2 C)
Relative Humidity: 60%
Pressure (altimeter): 30.42 in. Hg (1030 hPa)
ob: UKWW 241700Z 32005MPS 290V010 9999 OVC043 05/M02 Q1030 NOSIG
cycle: 17

Station Type Date Time Source
UKWW TAF 2010/03/21 10:45 UTC NOAA

TAF UKWW 211045Z 2112/2212 24005G10MPS 9999 SCT020 BKN070
TEMPO 2115/2207 1400 -SHRA BR SCT004 BKN007CB
FM220700 34007G12MPS 9999 SCT015 BKN100 TX11/2112Z TN01/2204Z

Example: see airport list